createdAt,value
2022-09-22T00:02:16.754Z,100.00
2022-09-22T00:04:43.270Z,100.00
2022-09-22T00:07:10.028Z,100.00
2022-09-22T00:09:36.521Z,100.00
2022-09-22T00:12:03.000Z,100.00
2022-09-22T00:14:29.487Z,100.00
2022-09-22T00:16:59.281Z,100.00
2022-09-22T00:19:32.039Z,100.00
2022-09-22T00:21:59.324Z,100.00
2022-09-22T00:24:27.686Z,100.00
2022-09-22T00:26:59.168Z,100.00
2022-09-22T00:29:27.673Z,100.00
2022-09-22T00:31:55.005Z,100.00
2022-09-22T00:34:25.367Z,100.00
2022-09-22T00:36:51.900Z,100.00
2022-09-22T00:39:18.962Z,100.00
2022-09-22T00:41:48.848Z,100.00
2022-09-22T00:44:21.525Z,100.00
2022-09-22T00:46:57.152Z,100.00
2022-09-22T00:49:33.070Z,100.00
2022-09-22T00:52:00.870Z,100.00
2022-09-22T00:54:27.628Z,100.00
2022-09-22T00:57:05.922Z,100.00
2022-09-22T00:59:32.997Z,100.00
2022-09-22T01:01:59.635Z,100.00
2022-09-22T01:04:26.808Z,100.00
2022-09-22T01:06:55.297Z,100.00
2022-09-22T01:09:23.270Z,100.00
2022-09-22T01:11:49.824Z,100.00
2022-09-22T01:14:46.607Z,100.00
2022-09-22T01:17:22.403Z,100.00
2022-09-22T01:20:15.010Z,100.00
2022-09-22T01:23:05.722Z,100.00
2022-09-22T01:25:54.102Z,100.00
2022-09-22T01:29:01.501Z,100.00
2022-09-22T01:31:34.816Z,100.00
2022-09-22T01:34:17.594Z,100.00
2022-09-22T01:36:54.839Z,100.00
2022-09-22T01:39:32.078Z,100.00
2022-09-22T01:42:09.393Z,100.00
2022-09-22T01:44:46.019Z,100.00
2022-09-22T01:47:24.305Z,100.00
2022-09-22T01:49:59.337Z,100.00
2022-09-22T01:52:29.110Z,100.00
2022-09-22T01:54:59.793Z,100.00
2022-09-22T01:57:54.969Z,100.00
2022-09-22T02:00:23.225Z,100.00
2022-09-22T02:03:14.478Z,100.00
2022-09-22T02:06:01.623Z,100.00
2022-09-22T02:08:47.922Z,100.00
2022-09-22T02:11:16.261Z,100.00
2022-09-22T02:13:47.168Z,100.00
2022-09-22T02:16:16.036Z,100.00
2022-09-22T02:18:53.363Z,100.00
2022-09-22T02:21:21.861Z,100.00
2022-09-22T02:23:49.342Z,100.00
2022-09-22T02:26:23.899Z,100.00
2022-09-22T02:29:17.937Z,100.00
2022-09-22T02:31:46.154Z,100.00
2022-09-22T02:34:13.039Z,100.00
2022-09-22T02:37:27.039Z,100.00
2022-09-22T02:40:23.786Z,100.00
2022-09-22T02:43:01.667Z,100.00
2022-09-22T02:45:34.541Z,100.00
2022-09-22T02:48:05.750Z,100.00
2022-09-22T02:50:34.312Z,100.00
2022-09-22T02:53:12.572Z,100.00
2022-09-22T02:55:39.398Z,100.00
2022-09-22T02:58:06.313Z,100.00
2022-09-22T03:00:33.236Z,100.00
2022-09-22T03:03:00.494Z,100.00
2022-09-22T03:05:27.092Z,100.00
2022-09-22T03:07:53.590Z,100.00
2022-09-22T03:10:20.557Z,100.00
2022-09-22T03:13:14.553Z,100.00
2022-09-22T03:15:33.623Z,100.00
2022-09-22T03:18:00.445Z,100.00
2022-09-22T03:20:27.050Z,100.00
2022-09-22T03:22:53.513Z,100.00
2022-09-22T03:25:20.092Z,100.00
2022-09-22T03:27:46.777Z,100.00
2022-09-22T03:30:13.527Z,100.00
2022-09-22T03:32:40.033Z,100.00
2022-09-22T03:35:07.287Z,100.00
2022-09-22T03:37:34.953Z,100.00
2022-09-22T03:40:02.557Z,100.00
2022-09-22T03:42:29.201Z,100.00
2022-09-22T03:44:56.205Z,100.00
2022-09-22T03:47:24.941Z,100.00
2022-09-22T03:49:51.708Z,100.00
2022-09-22T03:52:18.175Z,100.00
2022-09-22T03:54:44.749Z,100.00
2022-09-22T03:57:11.228Z,100.00
2022-09-22T03:59:37.797Z,100.00
2022-09-22T04:02:04.729Z,100.00
2022-09-22T04:04:32.601Z,100.00
2022-09-22T04:07:07.083Z,100.00
2022-09-22T04:09:34.206Z,100.00
2022-09-22T04:12:00.972Z,100.00
2022-09-22T04:14:27.695Z,100.00
2022-09-22T04:16:54.414Z,100.00
2022-09-22T04:19:22.805Z,100.00
2022-09-22T04:21:54.670Z,100.00
2022-09-22T04:24:24.645Z,100.00
2022-09-22T04:27:18.094Z,100.00
2022-09-22T04:29:38.239Z,100.00
2022-09-22T04:32:05.226Z,100.00
2022-09-22T04:34:32.576Z,100.00
2022-09-22T04:36:59.070Z,100.00
2022-09-22T04:39:28.579Z,100.00
2022-09-22T04:41:55.581Z,100.00
2022-09-22T04:44:22.188Z,100.00
2022-09-22T04:46:51.489Z,100.00
2022-09-22T04:49:18.633Z,100.00
2022-09-22T04:51:46.268Z,100.00
2022-09-22T04:54:14.853Z,100.00
2022-09-22T04:56:44.594Z,100.00
2022-09-22T04:59:11.955Z,100.00
2022-09-22T05:01:38.679Z,100.00
2022-09-22T05:04:05.273Z,100.00
2022-09-22T05:06:31.722Z,100.00
2022-09-22T05:08:58.641Z,100.00
2022-09-22T05:11:25.553Z,100.00
2022-09-22T05:13:52.036Z,100.00
2022-09-22T05:16:18.667Z,100.00
2022-09-22T05:18:45.219Z,100.00
2022-09-22T05:21:11.805Z,100.00
2022-09-22T05:23:39.901Z,100.00
2022-09-22T05:26:06.885Z,100.00
2022-09-22T05:28:33.548Z,100.00
2022-09-22T05:31:00.143Z,100.00
2022-09-22T05:33:26.629Z,100.00
2022-09-22T05:35:53.077Z,100.00
2022-09-22T05:38:19.602Z,100.00
2022-09-22T05:40:49.215Z,100.00
2022-09-22T05:43:15.875Z,100.00
2022-09-22T05:45:44.698Z,100.00
2022-09-22T05:48:11.301Z,100.00
2022-09-22T05:50:40.672Z,100.00
2022-09-22T05:53:11.156Z,100.00
2022-09-22T05:55:39.346Z,100.00
2022-09-22T05:58:05.965Z,100.00
2022-09-22T06:00:32.950Z,100.00
2022-09-22T06:02:59.598Z,100.00
2022-09-22T06:05:26.728Z,100.00
2022-09-22T06:08:03.284Z,100.00
2022-09-22T06:10:32.012Z,100.00
2022-09-22T06:12:59.961Z,100.00
2022-09-22T06:15:27.791Z,100.00
2022-09-22T06:17:55.962Z,100.00
2022-09-22T06:20:22.908Z,100.00
2022-09-22T06:22:49.490Z,100.00
2022-09-22T06:25:16.192Z,100.00
2022-09-22T06:27:43.985Z,100.00
2022-09-22T06:30:11.726Z,100.00
2022-09-22T06:32:43.714Z,100.00
2022-09-22T06:35:10.290Z,100.00
2022-09-22T06:37:38.634Z,100.00
2022-09-22T06:40:08.324Z,100.00
2022-09-22T06:42:35.629Z,100.00
2022-09-22T06:45:05.229Z,100.00
2022-09-22T06:47:32.944Z,100.00
2022-09-22T06:50:01.381Z,100.00
2022-09-22T06:52:28.977Z,100.00
2022-09-22T06:55:00.931Z,100.00
2022-09-22T06:57:32.698Z,100.00
2022-09-22T07:00:00.966Z,100.00
2022-09-22T07:02:29.610Z,100.00
2022-09-22T07:04:59.486Z,100.00
2022-09-22T07:07:28.217Z,100.00
2022-09-22T07:09:55.472Z,100.00
2022-09-22T07:12:22.574Z,100.00
2022-09-22T07:14:49.625Z,100.00
2022-09-22T07:17:18.922Z,100.00
2022-09-22T07:19:47.075Z,100.00
2022-09-22T07:22:15.716Z,100.00
2022-09-22T07:24:45.812Z,100.00
2022-09-22T07:27:14.686Z,100.00
2022-09-22T07:29:42.756Z,100.00
2022-09-22T07:32:10.840Z,100.00
2022-09-22T07:34:37.381Z,100.00
2022-09-22T07:37:03.866Z,100.00
2022-09-22T07:39:30.319Z,100.00
2022-09-22T07:41:56.916Z,100.00
2022-09-22T07:44:44.525Z,100.00
2022-09-22T07:47:11.857Z,100.00
2022-09-22T07:49:38.309Z,100.00
2022-09-22T07:52:04.921Z,100.00
2022-09-22T07:54:34.121Z,100.00
2022-09-22T07:57:02.293Z,100.00
2022-09-22T07:59:28.838Z,100.00
2022-09-22T08:01:55.792Z,100.00
2022-09-22T08:04:23.919Z,100.00
2022-09-22T08:06:54.411Z,100.00
2022-09-22T08:09:21.205Z,100.00
2022-09-22T08:11:48.825Z,100.00
2022-09-22T08:14:18.713Z,100.00
2022-09-22T08:16:46.506Z,100.00
2022-09-22T08:19:14.740Z,100.00
2022-09-22T08:21:48.896Z,100.00
2022-09-22T08:24:21.826Z,100.00
2022-09-22T08:26:50.530Z,100.00
2022-09-22T08:29:17.127Z,100.00
2022-09-22T08:31:45.481Z,100.00
2022-09-22T08:34:13.959Z,100.00
2022-09-22T08:36:42.208Z,100.00
2022-09-22T08:39:08.660Z,100.00
2022-09-22T08:41:55.376Z,100.00
2022-09-22T08:44:26.125Z,100.00
2022-09-22T08:46:55.507Z,100.00
2022-09-22T08:49:54.665Z,100.00
2022-09-22T08:52:43.251Z,100.00
2022-09-22T08:55:21.075Z,100.00
2022-09-22T08:58:35.094Z,100.00
2022-09-22T09:01:40.728Z,100.00
2022-09-22T09:04:08.644Z,100.00
2022-09-22T09:07:16.127Z,95.42
2022-09-22T09:09:58.026Z,96.51
2022-09-22T09:12:38.994Z,96.64
2022-09-22T09:15:11.557Z,96.47
2022-09-22T09:17:40.302Z,92.60
2022-09-22T09:20:21.934Z,92.46
2022-09-22T09:22:55.904Z,93.64
2022-09-22T09:25:24.300Z,92.96
2022-09-22T09:27:57.163Z,93.41
2022-09-22T09:30:24.086Z,93.61
2022-09-22T09:33:37.030Z,91.22
2022-09-22T09:36:03.765Z,89.18
2022-09-22T09:38:39.868Z,87.37
2022-09-22T09:41:34.089Z,86.73
2022-09-22T09:44:03.069Z,86.45
2022-09-22T09:46:59.694Z,85.30
2022-09-22T09:49:26.203Z,83.88
2022-09-22T09:52:00.145Z,83.36
2022-09-22T09:54:27.774Z,81.70
2022-09-22T09:57:06.779Z,79.68
2022-09-22T09:59:54.002Z,78.36
2022-09-22T10:02:28.625Z,77.64
2022-09-22T10:05:04.934Z,73.65
2022-09-22T10:07:40.800Z,71.74
2022-09-22T10:10:31.880Z,71.46
2022-09-22T10:13:04.100Z,72.36
2022-09-22T10:15:32.802Z,71.22
2022-09-22T10:17:59.834Z,71.11
2022-09-22T10:20:34.225Z,71.67
2022-09-22T10:23:23.039Z,73.28
2022-09-22T10:25:50.713Z,71.47
2022-09-22T10:28:19.614Z,70.25
2022-09-22T10:31:04.483Z,70.10
2022-09-22T10:33:32.620Z,72.02
2022-09-22T10:36:11.163Z,73.21
2022-09-22T10:38:43.543Z,70.72
2022-09-22T10:41:27.818Z,71.76
2022-09-22T10:44:37.588Z,70.07
2022-09-22T10:47:27.147Z,69.11
2022-09-22T10:50:24.335Z,68.24
2022-09-22T10:53:03.105Z,67.87
2022-09-22T10:55:35.682Z,68.92
2022-09-22T10:58:07.067Z,69.86
2022-09-22T11:00:38.953Z,67.94
2022-09-22T11:03:37.988Z,68.79
2022-09-22T11:06:48.454Z,70.62
2022-09-22T11:09:49.922Z,67.68
2022-09-22T11:12:57.041Z,69.69
2022-09-22T11:15:45.861Z,66.97
2022-09-22T11:18:44.191Z,67.82
2022-09-22T11:21:44.577Z,68.67
2022-09-22T11:24:17.086Z,70.19
2022-09-22T11:26:48.984Z,70.83
2022-09-22T11:29:30.283Z,70.59
2022-09-22T11:32:17.223Z,71.19
2022-09-22T11:34:59.582Z,67.48
2022-09-22T11:37:29.229Z,68.88
2022-09-22T11:40:19.632Z,66.64
2022-09-22T11:43:03.687Z,67.40
2022-09-22T11:45:55.750Z,63.59
2022-09-22T11:48:47.185Z,63.76
2022-09-22T11:51:47.640Z,65.77
2022-09-22T11:54:21.220Z,61.26
2022-09-22T11:56:55.646Z,61.82
2022-09-22T11:59:37.241Z,61.69
2022-09-22T12:02:25.601Z,62.16
2022-09-22T12:04:57.536Z,58.82
2022-09-22T12:07:31.226Z,57.83
2022-09-22T12:10:05.414Z,57.32
2022-09-22T12:12:33.323Z,59.61
2022-09-22T12:15:20.512Z,60.80
2022-09-22T12:17:56.994Z,60.48
2022-09-22T12:20:44.028Z,61.59
2022-09-22T12:23:23.776Z,61.92
2022-09-22T12:25:55.556Z,62.11
2022-09-22T12:28:32.679Z,58.92
2022-09-22T12:31:22.430Z,59.93
2022-09-22T12:33:52.609Z,60.08
2022-09-22T12:36:32.411Z,60.14
2022-09-22T12:39:28.988Z,60.18
2022-09-22T12:42:03.154Z,62.43
2022-09-22T12:44:46.062Z,65.26
2022-09-22T12:47:22.773Z,62.67
2022-09-22T12:49:56.891Z,62.02
2022-09-22T12:52:43.782Z,61.55
2022-09-22T12:55:28.591Z,62.74
2022-09-22T12:57:59.286Z,62.88
2022-09-22T13:00:33.004Z,62.94
2022-09-22T13:03:00.131Z,59.31
2022-09-22T13:05:26.971Z,58.78
2022-09-22T13:07:54.631Z,58.68
2022-09-22T13:10:24.405Z,58.14
2022-09-22T13:13:12.655Z,57.25
2022-09-22T13:15:51.390Z,58.53
2022-09-22T13:18:39.216Z,60.08
2022-09-22T13:21:12.639Z,60.79
2022-09-22T13:23:51.167Z,60.57
2022-09-22T13:26:22.176Z,59.76
2022-09-22T13:29:11.665Z,60.74
2022-09-22T13:31:46.934Z,61.28
2022-09-22T13:34:37.229Z,63.92
2022-09-22T13:37:12.359Z,63.19
2022-09-22T13:39:47.402Z,64.34
2022-09-22T13:42:34.134Z,63.97
2022-09-22T13:45:24.087Z,60.38
2022-09-22T13:47:54.338Z,61.59
2022-09-22T13:50:24.353Z,62.06
2022-09-22T13:52:52.602Z,63.16
2022-09-22T13:55:32.615Z,62.94
2022-09-22T13:58:03.894Z,64.45
2022-09-22T14:01:14.359Z,62.99
2022-09-22T14:03:41.818Z,62.22
2022-09-22T14:06:15.645Z,60.99
2022-09-22T14:08:45.036Z,60.44
2022-09-22T14:11:17.044Z,62.22
2022-09-22T14:13:59.096Z,62.48
2022-09-22T14:16:48.339Z,63.06
2022-09-22T14:19:15.999Z,58.98
2022-09-22T14:21:55.337Z,58.90
2022-09-22T14:24:22.622Z,58.69
2022-09-22T14:27:01.590Z,60.09
2022-09-22T14:29:32.885Z,61.44
2022-09-22T14:32:12.503Z,62.33
2022-09-22T14:34:40.008Z,63.07
2022-09-22T14:37:27.166Z,62.44
2022-09-22T14:39:55.558Z,60.10
2022-09-22T14:42:28.671Z,62.10
2022-09-22T14:45:10.247Z,64.71
2022-09-22T14:47:40.529Z,63.82
2022-09-22T14:50:20.168Z,63.85
2022-09-22T14:53:02.044Z,64.18
2022-09-22T14:55:34.363Z,63.34
2022-09-22T14:58:05.323Z,62.51
2022-09-22T15:00:51.137Z,61.28
2022-09-22T15:03:27.133Z,61.88
2022-09-22T15:05:55.496Z,61.10
2022-09-22T15:08:27.858Z,62.49
2022-09-22T15:10:57.176Z,62.66
2022-09-22T15:13:38.041Z,64.33
2022-09-22T15:16:07.290Z,64.65
2022-09-22T15:18:34.004Z,64.06
2022-09-22T15:21:14.322Z,62.33
2022-09-22T15:23:48.101Z,61.78
2022-09-22T15:26:25.249Z,60.92
2022-09-22T15:28:54.383Z,63.06
2022-09-22T15:31:27.089Z,63.11
2022-09-22T15:34:00.294Z,64.19
2022-09-22T15:36:33.162Z,65.92
2022-09-22T15:39:09.434Z,67.27
2022-09-22T15:41:36.011Z,67.98
2022-09-22T15:44:06.088Z,69.19
2022-09-22T15:46:35.886Z,69.63
2022-09-22T15:49:22.583Z,72.07
2022-09-22T15:51:53.060Z,73.68
2022-09-22T15:54:22.004Z,72.08
2022-09-22T15:56:52.295Z,72.13
2022-09-22T15:59:22.838Z,73.23
2022-09-22T16:01:51.964Z,74.66
2022-09-22T16:04:19.738Z,76.18
2022-09-22T16:06:52.144Z,77.00
2022-09-22T16:09:19.191Z,79.36
2022-09-22T16:11:46.299Z,79.20
2022-09-22T16:14:13.052Z,80.63
2022-09-22T16:16:39.807Z,80.74
2022-09-22T16:19:09.735Z,80.43
2022-09-22T16:21:38.329Z,81.16
2022-09-22T16:24:08.535Z,82.20
2022-09-22T16:26:39.784Z,82.99
2022-09-22T16:29:07.712Z,83.77
2022-09-22T16:31:43.140Z,85.06
2022-09-22T16:34:10.741Z,88.01
2022-09-22T16:36:40.062Z,90.11
2022-09-22T17:01:41.600Z,100.00
2022-09-22T17:04:09.237Z,100.00
2022-09-22T17:06:38.444Z,100.00
2022-09-22T17:09:06.094Z,100.00
2022-09-22T17:11:36.421Z,100.00
2022-09-22T17:14:12.353Z,100.00
2022-09-22T17:16:41.577Z,100.00
2022-09-22T17:19:20.069Z,100.00
2022-09-22T17:21:48.542Z,100.00
2022-09-22T17:24:16.086Z,100.00
2022-09-22T17:26:48.071Z,100.00
2022-09-22T17:29:18.980Z,100.00
2022-09-22T17:31:49.450Z,100.00
2022-09-22T17:34:16.087Z,100.00
2022-09-22T17:36:42.949Z,100.00
2022-09-22T17:39:10.701Z,100.00
2022-09-22T17:41:45.571Z,100.00
2022-09-22T17:44:13.155Z,100.00
2022-09-22T17:46:59.652Z,100.00
2022-09-22T17:49:45.032Z,100.00
2022-09-22T17:52:34.272Z,100.00
2022-09-22T17:55:06.817Z,100.00
2022-09-22T17:57:35.975Z,100.00
2022-09-22T18:00:08.643Z,100.00
2022-09-22T18:02:41.686Z,100.00
2022-09-22T18:05:11.011Z,100.00
2022-09-22T18:07:40.505Z,100.00
2022-09-22T18:10:16.004Z,100.00
2022-09-22T18:12:43.482Z,100.00
2022-09-22T18:15:13.460Z,100.00
2022-09-22T18:17:42.134Z,100.00
2022-09-22T18:20:14.873Z,100.00
2022-09-22T18:22:47.671Z,100.00
2022-09-22T18:25:15.265Z,100.00
2022-09-22T18:27:42.371Z,100.00
2022-09-22T18:30:14.141Z,100.00
2022-09-22T18:32:42.461Z,100.00
2022-09-22T18:35:11.172Z,100.00
2022-09-22T18:37:37.781Z,100.00
2022-09-22T18:40:05.322Z,100.00
2022-09-22T18:42:32.435Z,100.00
2022-09-22T18:44:59.104Z,100.00
2022-09-22T18:47:26.314Z,100.00
2022-09-22T18:49:52.966Z,100.00
2022-09-22T18:52:24.713Z,100.00
2022-09-22T18:54:54.050Z,100.00
2022-09-22T18:57:25.654Z,100.00
2022-09-22T18:59:54.211Z,100.00
2022-09-22T19:02:22.442Z,100.00
2022-09-22T19:04:51.255Z,100.00
2022-09-22T19:07:40.582Z,100.00
2022-09-22T19:10:13.682Z,100.00
2022-09-22T19:12:40.441Z,100.00
2022-09-22T19:15:16.828Z,100.00
2022-09-22T19:17:45.775Z,100.00
2022-09-22T19:20:16.297Z,100.00
2022-09-22T19:22:43.564Z,100.00
2022-09-22T19:25:10.995Z,100.00
2022-09-22T19:27:39.651Z,100.00
2022-09-22T19:30:07.429Z,100.00
2022-09-22T19:32:34.059Z,100.00
2022-09-22T19:35:00.810Z,100.00
2022-09-22T19:37:29.340Z,100.00
2022-09-22T19:39:56.629Z,100.00
2022-09-22T19:42:23.982Z,100.00
2022-09-22T19:44:50.899Z,100.00
2022-09-22T19:47:22.898Z,100.00
2022-09-22T19:49:49.769Z,100.00
2022-09-22T19:52:16.686Z,100.00
2022-09-22T19:54:44.985Z,100.00
2022-09-22T19:57:11.758Z,100.00
2022-09-22T19:59:38.342Z,100.00
2022-09-22T20:02:11.984Z,100.00
2022-09-22T20:04:39.246Z,100.00
2022-09-22T20:07:08.767Z,100.00
2022-09-22T20:09:35.488Z,100.00
2022-09-22T20:12:03.616Z,100.00
2022-09-22T20:14:31.993Z,100.00
2022-09-22T20:17:02.160Z,100.00
2022-09-22T20:19:34.303Z,100.00
2022-09-22T20:22:25.094Z,100.00
2022-09-22T20:24:55.107Z,100.00
2022-09-22T20:27:26.905Z,100.00
2022-09-22T20:29:57.101Z,100.00
2022-09-22T20:32:25.848Z,100.00
2022-09-22T20:34:54.261Z,100.00
2022-09-22T20:37:21.145Z,100.00
2022-09-22T20:39:47.721Z,100.00
2022-09-22T20:42:15.489Z,100.00
2022-09-22T20:44:42.622Z,100.00
2022-09-22T20:47:13.861Z,100.00
2022-09-22T20:49:41.994Z,100.00
2022-09-22T20:52:14.206Z,100.00
2022-09-22T20:54:40.817Z,100.00
2022-09-22T20:57:07.626Z,100.00
2022-09-22T20:59:34.180Z,100.00
2022-09-22T21:02:00.968Z,100.00
2022-09-22T21:04:28.281Z,100.00
2022-09-22T21:06:55.676Z,100.00
2022-09-22T21:09:41.913Z,100.00
2022-09-22T21:12:09.257Z,100.00
2022-09-22T21:14:36.132Z,100.00
2022-09-22T21:17:06.903Z,100.00
2022-09-22T21:19:34.579Z,100.00
2022-09-22T21:22:01.238Z,100.00
2022-09-22T21:24:28.292Z,100.00
2022-09-22T21:26:54.863Z,100.00
2022-09-22T21:29:21.666Z,100.00
2022-09-22T21:31:49.778Z,100.00
2022-09-22T21:34:19.559Z,100.00
2022-09-22T21:36:46.194Z,100.00
2022-09-22T21:39:12.804Z,100.00
2022-09-22T21:41:39.322Z,100.00
2022-09-22T21:44:05.937Z,100.00
2022-09-22T21:46:33.412Z,100.00
2022-09-22T21:49:02.110Z,100.00
2022-09-22T21:51:36.958Z,100.00
2022-09-22T21:54:05.280Z,100.00
2022-09-22T21:56:33.762Z,100.00
2022-09-22T21:59:02.838Z,100.00
2022-09-22T22:01:31.963Z,100.00
2022-09-22T22:04:00.238Z,100.00
2022-09-22T22:06:32.648Z,100.00
2022-09-22T22:09:02.490Z,100.00
2022-09-22T22:11:32.798Z,100.00
2022-09-22T22:14:01.379Z,100.00
2022-09-22T22:16:33.892Z,100.00
2022-09-22T22:19:01.530Z,100.00
2022-09-22T22:21:30.054Z,100.00
2022-09-22T22:24:19.091Z,100.00
2022-09-22T22:26:53.207Z,100.00
2022-09-22T22:29:21.110Z,100.00
2022-09-22T22:31:51.909Z,100.00
2022-09-22T22:34:20.810Z,100.00
2022-09-22T22:36:48.739Z,100.00
2022-09-22T22:39:15.635Z,100.00
2022-09-22T22:41:42.191Z,100.00
2022-09-22T22:44:08.934Z,100.00
2022-09-22T22:46:36.245Z,100.00
2022-09-22T22:49:03.525Z,100.00
2022-09-22T22:51:30.519Z,100.00
2022-09-22T22:53:57.015Z,100.00
2022-09-22T22:56:26.075Z,100.00
2022-09-22T22:58:53.587Z,100.00
2022-09-22T23:01:23.123Z,100.00
2022-09-22T23:04:00.465Z,100.00
2022-09-22T23:06:29.826Z,100.00
2022-09-22T23:08:56.906Z,100.00
2022-09-22T23:11:29.921Z,100.00
2022-09-22T23:14:02.036Z,100.00
2022-09-22T23:16:31.608Z,100.00
2022-09-22T23:19:01.368Z,100.00
2022-09-22T23:21:30.318Z,100.00
2022-09-22T23:23:57.201Z,100.00
2022-09-22T23:26:27.958Z,100.00
2022-09-22T23:28:55.062Z,100.00
2022-09-22T23:31:22.199Z,100.00
2022-09-22T23:33:50.689Z,100.00
2022-09-22T23:36:19.676Z,100.00
2022-09-22T23:38:46.509Z,100.00
2022-09-22T23:41:13.543Z,100.00
2022-09-22T23:43:40.349Z,100.00
2022-09-22T23:46:07.782Z,100.00
2022-09-22T23:48:35.449Z,100.00
2022-09-22T23:51:02.898Z,100.00
2022-09-22T23:53:35.276Z,100.00
2022-09-22T23:56:02.696Z,100.00
2022-09-22T23:58:30.366Z,100.00
